Search for airport 
image banner adimage banner ad
image banner ad

VIAR - Amritsar

Located in Amritsar, India

ICAO - VIAR, IATA - ATQ

Data provided by Airmate  

General information

Coordinates: N31°42'17" E74°48'7"
Elevation is 758 feet MSL.
 
Rated:
View ratings: [VIEW]


View others Airports in Punjab

Operational data

Open for public use
Current time UTC:
Current local time:
Weather
METAR: VIAR 211700Z 00000KT 2700 BR FEW040 26/23 Q1008 NOSIG
TAF: TAF VIAR 211400Z 2115/2124 00000KT 3500 HZ FEW040 BECMG 2118/2122 FEW040CB
View NOTAMs / SUP AIP / TFR affecting this airport [VIEW]
Communications frequencies: [VIEW]

Runways:

RWY identifierQFULength (ft)Width (ft)SurfaceLDA (ft)
16158°11998148ASP
34338°11998148

Airport contact information

Address: Amritsar India

Satellite view of VIAR